createdAt,value
2018-10-18T00:01:50.861Z,99178.91
2018-10-18T00:04:19.156Z,99179.05
2018-10-18T00:06:47.468Z,99180.13
2018-10-18T00:09:15.788Z,99173.26
2018-10-18T00:11:44.155Z,99185.72
2018-10-18T00:14:12.601Z,99180.98
2018-10-18T00:16:40.858Z,99177.49
2018-10-18T00:19:09.343Z,99176.88
2018-10-18T00:21:37.666Z,99174.81
2018-10-18T00:24:06.070Z,99178.56
2018-10-18T00:26:34.374Z,99182.47
2018-10-18T00:29:02.737Z,99180.75
2018-10-18T00:31:31.061Z,99177.50
2018-10-18T00:33:59.406Z,99180.98
2018-10-18T00:36:27.744Z,99182.41
2018-10-18T00:38:56.098Z,99182.19
2018-10-18T00:41:24.636Z,99174.81
2018-10-18T00:43:52.955Z,99173.61
2018-10-18T00:46:21.303Z,99166.23
2018-10-18T00:48:49.640Z,99172.53
2018-10-18T00:51:17.999Z,99178.45
2018-10-18T00:53:46.299Z,99168.28
2018-10-18T00:56:14.718Z,99167.08
2018-10-18T00:58:43.045Z,99163.81
2018-10-18T01:01:11.371Z,99170.82
2018-10-18T01:03:39.786Z,99165.61
2018-10-18T01:06:08.116Z,99165.61
2018-10-18T01:08:36.490Z,99169.02
2018-10-18T01:11:04.875Z,99165.88
2018-10-18T01:13:33.227Z,99164.55
2018-10-18T01:16:01.544Z,99169.23
2018-10-18T01:18:29.931Z,99174.34
2018-10-18T01:20:58.281Z,99167.55
2018-10-18T01:23:26.594Z,99174.22
2018-10-18T01:25:54.979Z,99174.81
2018-10-18T01:28:23.296Z,99174.70
2018-10-18T01:30:51.664Z,99168.37
2018-10-18T01:33:20.008Z,99168.88
2018-10-18T01:35:48.369Z,99167.12
2018-10-18T01:38:16.794Z,99167.19
2018-10-18T01:40:45.131Z,99171.84
2018-10-18T01:43:13.449Z,99164.64
2018-10-18T01:45:41.812Z,99161.14
2018-10-18T01:48:10.490Z,99167.25
2018-10-18T01:50:38.712Z,99168.03
2018-10-18T01:53:07.608Z,99165.31
2018-10-18T01:55:35.953Z,99162.92
2018-10-18T01:58:04.356Z,99164.52
2018-10-18T02:00:32.673Z,99161.69
2018-10-18T02:03:01.128Z,99166.86
2018-10-18T02:05:29.445Z,99155.81
2018-10-18T02:07:57.780Z,99164.39
2018-10-18T02:10:26.072Z,99163.19
2018-10-18T02:12:54.390Z,99165.84
2018-10-18T02:15:22.699Z,99166.21
2018-10-18T02:17:51.050Z,99167.30
2018-10-18T02:20:19.367Z,99172.66
2018-10-18T02:22:47.756Z,99164.68
2018-10-18T02:25:16.232Z,99173.45
2018-10-18T02:27:44.617Z,99170.44
2018-10-18T02:30:13.045Z,99174.84
2018-10-18T02:32:41.341Z,99174.84
2018-10-18T02:35:09.703Z,99175.68
2018-10-18T02:37:37.988Z,99166.92
2018-10-18T02:40:06.412Z,99172.92
2018-10-18T02:42:34.704Z,99177.69
2018-10-18T02:45:03.140Z,99174.78
2018-10-18T02:47:31.567Z,99172.13
2018-10-18T02:49:59.902Z,99173.89
2018-10-18T02:52:28.300Z,99181.62
2018-10-18T02:54:56.612Z,99182.53
2018-10-18T02:57:24.914Z,99191.67
2018-10-18T02:59:53.351Z,99185.80
2018-10-18T03:02:21.677Z,99187.19
2018-10-18T03:04:50.040Z,99182.95
2018-10-18T03:07:18.336Z,99183.13
2018-10-18T03:09:46.707Z,99181.16
2018-10-18T03:12:15.048Z,99176.20
2018-10-18T03:14:43.555Z,99183.50
2018-10-18T03:17:11.868Z,99175.86
2018-10-18T03:19:40.245Z,99172.80
2018-10-18T03:22:08.541Z,99184.28
2018-10-18T03:24:36.896Z,99176.43
2018-10-18T03:27:05.831Z,99184.05
2018-10-18T03:29:34.155Z,99196.92
2018-10-18T03:32:02.489Z,99195.17
2018-10-18T03:34:30.810Z,99193.95
2018-10-18T03:36:59.127Z,99194.06
2018-10-18T03:39:27.479Z,99197.16
2018-10-18T03:41:55.767Z,99193.95
2018-10-18T03:44:24.183Z,99200.43
2018-10-18T03:46:52.541Z,99204.77
2018-10-18T03:49:20.943Z,99208.27
2018-10-18T03:51:49.352Z,99206.33
2018-10-18T03:54:17.729Z,99209.92
2018-10-18T03:56:46.231Z,99206.64
2018-10-18T03:59:14.568Z,99206.78
2018-10-18T04:01:42.898Z,99215.86
2018-10-18T04:04:11.227Z,99204.50
2018-10-18T04:06:39.536Z,99219.89
2018-10-18T04:09:09.157Z,99222.17
2018-10-18T04:11:37.522Z,99208.20
2018-10-18T04:14:06.103Z,99206.06
2018-10-18T04:16:34.563Z,99200.27
2018-10-18T04:19:02.944Z,99200.41
2018-10-18T04:21:31.283Z,99202.87
2018-10-18T04:23:59.770Z,99208.64
2018-10-18T04:26:28.212Z,99207.05
2018-10-18T04:28:56.679Z,99210.95
2018-10-18T04:31:25.039Z,99212.50
2018-10-18T04:33:53.358Z,99213.82
2018-10-18T04:36:21.722Z,99214.48
2018-10-18T04:38:50.041Z,99212.74
2018-10-18T04:41:18.480Z,99213.62
2018-10-18T04:43:46.820Z,99211.07
2018-10-18T04:46:15.170Z,99210.78
2018-10-18T04:48:43.502Z,99219.91
2018-10-18T04:51:11.876Z,99217.73
2018-10-18T04:53:40.193Z,99218.09
2018-10-18T04:56:08.579Z,99220.17
2018-10-18T04:58:36.912Z,99231.97
2018-10-18T05:01:05.566Z,99231.11
2018-10-18T05:03:33.818Z,99230.40
2018-10-18T05:06:03.859Z,99232.27
2018-10-18T05:08:32.282Z,99229.59
2018-10-18T05:11:00.651Z,99232.60
2018-10-18T05:13:29.047Z,99224.23
2018-10-18T05:15:57.457Z,99238.37
2018-10-18T05:18:25.832Z,99242.16
2018-10-18T05:20:54.242Z,99236.20
2018-10-18T05:23:22.620Z,99238.32
2018-10-18T05:25:51.477Z,99242.05
2018-10-18T05:28:20.187Z,99249.80
2018-10-18T05:30:48.743Z,99254.77
2018-10-18T05:33:17.075Z,99252.22
2018-10-18T05:35:45.368Z,99252.09
2018-10-18T05:38:13.936Z,99263.34
2018-10-18T05:40:42.282Z,99261.06
2018-10-18T05:43:10.710Z,99270.03
2018-10-18T05:45:39.001Z,99274.50
2018-10-18T05:48:07.431Z,99273.20
2018-10-18T05:50:35.769Z,99275.93
2018-10-18T05:53:04.203Z,99286.08
2018-10-18T05:55:32.534Z,99285.44
2018-10-18T05:58:00.887Z,99287.13
2018-10-18T06:00:29.195Z,99288.82
2018-10-18T06:02:57.524Z,99284.10
2018-10-18T06:05:25.874Z,99291.66
2018-10-18T06:07:54.239Z,99287.98
2018-10-18T06:10:34.137Z,99289.19
2018-10-18T06:13:02.881Z,99293.93
2018-10-18T06:15:32.026Z,99294.48
2018-10-18T06:18:00.400Z,99299.83
2018-10-18T06:20:28.912Z,99307.50
2018-10-18T06:22:57.372Z,99311.59
2018-10-18T06:25:25.598Z,99312.06
2018-10-18T06:27:53.948Z,99313.61
2018-10-18T06:30:22.265Z,99310.05
2018-10-18T06:32:50.592Z,99317.22
2018-10-18T06:35:18.943Z,99325.66
2018-10-18T06:37:47.269Z,99325.66
2018-10-18T06:40:17.045Z,99320.19
2018-10-18T06:42:45.377Z,99325.59
2018-10-18T06:45:16.044Z,99323.00
2018-10-18T06:47:44.845Z,99325.46
2018-10-18T06:50:18.472Z,99325.08
2018-10-18T06:52:46.808Z,99328.91
2018-10-18T06:55:15.272Z,99325.98
2018-10-18T06:57:44.171Z,99330.23
2018-10-18T07:00:14.702Z,99333.69
2018-10-18T07:02:43.606Z,99326.12
2018-10-18T07:05:13.099Z,99325.73
2018-10-18T07:07:41.975Z,99326.02
2018-10-18T07:10:15.429Z,99334.61
2018-10-18T07:12:43.811Z,99331.23
2018-10-18T07:15:13.167Z,99327.50
2018-10-18T07:17:42.399Z,99331.73
2018-10-18T07:20:11.131Z,99333.77
2018-10-18T07:22:39.940Z,99333.52
2018-10-18T07:25:10.621Z,99337.20
2018-10-18T07:27:39.411Z,99337.41
2018-10-18T07:30:08.772Z,99343.81
2018-10-18T07:32:37.138Z,99345.75
2018-10-18T07:35:06.366Z,99349.84
2018-10-18T07:37:34.732Z,99340.81
2018-10-18T07:40:03.196Z,99342.30
2018-10-18T07:42:31.516Z,99345.77
2018-10-18T07:44:59.906Z,99347.39
2018-10-18T07:47:28.232Z,99342.61
2018-10-18T07:49:56.577Z,99336.98
2018-10-18T07:52:24.892Z,99343.05
2018-10-18T07:54:53.281Z,99334.98
2018-10-18T07:57:21.654Z,99334.98
2018-10-18T07:59:50.048Z,99333.22
2018-10-18T08:02:18.535Z,99335.44
2018-10-18T08:04:46.900Z,99333.45
2018-10-18T08:07:15.321Z,99336.47
2018-10-18T08:09:43.650Z,99343.95
2018-10-18T08:12:12.013Z,99340.28
2018-10-18T08:14:40.452Z,99343.63
2018-10-18T08:17:08.858Z,99346.95
2018-10-18T08:19:37.229Z,99345.13
2018-10-18T08:22:05.749Z,99343.27
2018-10-18T08:24:34.168Z,99345.02
2018-10-18T08:27:02.608Z,99345.44
2018-10-18T08:29:30.985Z,99337.47
2018-10-18T08:31:59.608Z,99346.39
2018-10-18T08:34:27.935Z,99348.26
2018-10-18T08:36:56.284Z,99341.30
2018-10-18T08:39:24.637Z,99346.84
2018-10-18T08:41:52.959Z,99350.33
2018-10-18T08:44:21.350Z,99349.21
2018-10-18T08:46:49.668Z,99362.20
2018-10-18T08:49:18.122Z,99357.73
2018-10-18T08:51:46.506Z,99360.95
2018-10-18T08:54:14.832Z,99367.44
2018-10-18T08:56:43.164Z,99366.81
2018-10-18T08:59:11.512Z,99372.37
2018-10-18T09:01:39.901Z,99369.80
2018-10-18T09:04:08.316Z,99369.41
2018-10-18T09:06:37.046Z,99368.34
2018-10-18T09:09:07.619Z,99370.48
2018-10-18T09:11:36.055Z,99367.11
2018-10-18T09:14:04.406Z,99373.58
2018-10-18T09:16:32.845Z,99369.88
2018-10-18T09:19:01.206Z,99375.27
2018-10-18T09:21:29.539Z,99378.98
2018-10-18T09:23:57.993Z,99376.55
2018-10-18T09:26:26.325Z,99375.02
2018-10-18T09:28:54.685Z,99380.55
2018-10-18T09:31:23.077Z,99383.08
2018-10-18T09:33:51.458Z,99381.88
2018-10-18T09:36:19.826Z,99389.38
2018-10-18T09:38:48.423Z,99393.11
2018-10-18T09:41:16.791Z,99394.33
2018-10-18T09:43:45.169Z,99389.16
2018-10-18T09:46:13.530Z,99402.22
2018-10-18T09:48:42.026Z,99401.40
2018-10-18T09:51:10.360Z,99400.52
2018-10-18T09:53:38.760Z,99404.33
2018-10-18T09:56:07.239Z,99408.78
2018-10-18T09:58:35.814Z,99413.47
2018-10-18T10:01:09.736Z,99417.72
2018-10-18T10:03:38.112Z,99422.61
2018-10-18T10:06:06.925Z,99418.45
2018-10-18T10:08:35.434Z,99413.08
2018-10-18T10:11:03.820Z,99419.88
2018-10-18T10:13:32.430Z,99415.28
2018-10-18T10:16:00.867Z,99416.35
2018-10-18T10:18:29.265Z,99419.73
2018-10-18T10:20:57.638Z,99420.42
2018-10-18T10:23:26.224Z,99414.36
2018-10-18T10:25:54.594Z,99412.59
2018-10-18T10:28:22.975Z,99425.72
2018-10-18T10:30:51.343Z,99430.73
2018-10-18T10:33:19.892Z,99425.43
2018-10-18T10:35:48.175Z,99422.98
2018-10-18T10:38:16.553Z,99427.34
2018-10-18T10:40:45.003Z,99420.16
2018-10-18T10:43:13.351Z,99417.60
2018-10-18T10:45:41.782Z,99416.06
2018-10-18T10:48:10.159Z,99417.26
2018-10-18T10:50:38.463Z,99407.81
2018-10-18T10:53:06.844Z,99404.44
2018-10-18T10:55:35.176Z,99414.27
2018-10-18T10:58:03.581Z,99412.22
2018-10-18T11:01:17.238Z,99409.45
2018-10-18T11:03:45.938Z,99417.45
2018-10-18T11:06:14.590Z,99409.44
2018-10-18T11:08:42.960Z,99406.25
2018-10-18T11:11:11.988Z,99401.27
2018-10-18T11:13:40.445Z,99404.88
2018-10-18T11:16:09.016Z,99399.97
2018-10-18T11:18:38.382Z,99408.21
2018-10-18T11:21:07.994Z,99397.54
2018-10-18T11:23:36.638Z,99402.41
2018-10-18T11:26:05.219Z,99404.09
2018-10-18T11:28:33.805Z,99405.73
2018-10-18T11:31:02.281Z,99405.11
2018-10-18T11:33:30.703Z,99397.39
2018-10-18T11:35:59.075Z,99400.16
2018-10-18T11:38:32.402Z,99396.20
2018-10-18T11:41:00.859Z,99396.86
2018-10-18T11:43:29.293Z,99389.30
2018-10-18T11:45:57.627Z,99387.80
2018-10-18T11:48:26.014Z,99382.89
2018-10-18T11:50:54.403Z,99379.28
2018-10-18T11:53:22.834Z,99382.61
2018-10-18T11:55:51.119Z,99368.95
2018-10-18T11:58:19.430Z,99371.97
2018-10-18T12:00:47.941Z,99371.59
2018-10-18T12:03:16.263Z,99371.46
2018-10-18T12:05:44.689Z,99374.19
2018-10-18T12:08:13.293Z,99374.21
2018-10-18T12:10:41.491Z,99374.42
2018-10-18T12:13:09.986Z,99379.85
2018-10-18T12:15:38.406Z,99384.58
2018-10-18T12:18:06.756Z,99381.05
2018-10-18T12:20:35.312Z,99375.36
2018-10-18T12:23:03.701Z,99369.63
2018-10-18T12:25:32.044Z,99378.98
2018-10-18T12:28:00.424Z,99378.55
2018-10-18T12:30:29.823Z,99374.35
2018-10-18T12:32:58.171Z,99383.39
2018-10-18T12:35:26.517Z,99389.12
2018-10-18T12:37:54.891Z,99386.55
2018-10-18T12:40:23.426Z,99385.92
2018-10-18T12:42:52.061Z,99393.31
2018-10-18T12:45:20.446Z,99390.93
2018-10-18T12:47:52.205Z,99399.19
2018-10-18T12:50:20.525Z,99392.48
2018-10-18T12:52:48.826Z,99399.37
2018-10-18T12:55:17.222Z,99397.45
2018-10-18T12:57:45.632Z,99402.72
2018-10-18T13:00:14.135Z,99396.89
2018-10-18T13:02:42.368Z,99395.11
2018-10-18T13:05:11.583Z,99394.66
2018-10-18T13:07:39.962Z,99393.79
2018-10-18T13:10:10.324Z,99399.41
2018-10-18T13:12:38.810Z,99397.87
2018-10-18T13:15:08.544Z,99398.87
2018-10-18T13:17:36.912Z,99394.31
2018-10-18T13:20:06.241Z,99394.56
2018-10-18T13:22:34.731Z,99395.81
2018-10-18T13:25:03.057Z,99390.48
2018-10-18T13:27:31.440Z,99397.50
2018-10-18T13:29:59.826Z,99386.02
2018-10-18T13:32:28.107Z,99402.66
2018-10-18T13:34:56.622Z,99392.83
2018-10-18T13:37:24.907Z,99392.31
2018-10-18T13:39:53.261Z,99397.61
2018-10-18T13:42:21.564Z,99389.33
2018-10-18T13:44:49.937Z,99403.86
2018-10-18T13:47:18.256Z,99388.94
2018-10-18T13:49:46.574Z,99387.88
2018-10-18T13:52:15.023Z,99384.36
2018-10-18T13:54:43.440Z,99371.98
2018-10-18T13:57:11.791Z,99380.11
2018-10-18T13:59:51.360Z,99383.39
2018-10-18T14:02:19.713Z,99380.73
2018-10-18T14:04:54.693Z,99393.97
2018-10-18T14:07:23.049Z,99392.39
2018-10-18T14:09:51.557Z,99386.66
2018-10-18T14:12:19.983Z,99383.77
2018-10-18T14:14:48.365Z,99392.70
2018-10-18T14:17:16.844Z,99381.70
2018-10-18T14:19:45.085Z,99383.45
2018-10-18T14:22:13.415Z,99385.70
2018-10-18T14:24:41.712Z,99392.78
2018-10-18T14:27:10.232Z,99388.56
2018-10-18T14:29:38.708Z,99396.32
2018-10-18T14:32:07.515Z,99391.91
2018-10-18T14:34:36.111Z,99390.57
2018-10-18T14:37:04.688Z,99402.66
2018-10-18T14:39:32.999Z,99393.15
2018-10-18T14:42:01.331Z,99402.69
2018-10-18T14:44:29.771Z,99405.41
2018-10-18T14:46:58.195Z,99403.56
2018-10-18T14:49:26.606Z,99401.02
2018-10-18T14:51:54.947Z,99393.42
2018-10-18T14:54:23.659Z,99398.91
2018-10-18T14:56:52.004Z,99398.71
2018-10-18T14:59:20.594Z,99395.97
2018-10-18T15:01:49.291Z,99397.28
2018-10-18T15:04:17.661Z,99398.16
2018-10-18T15:06:46.040Z,99397.23
2018-10-18T15:09:14.445Z,99400.81
2018-10-18T15:11:42.810Z,99398.13
2018-10-18T15:14:11.126Z,99395.28
2018-10-18T15:16:39.431Z,99399.02
2018-10-18T15:19:07.739Z,99398.89
2018-10-18T15:21:36.151Z,99396.12
2018-10-18T15:24:04.835Z,99405.52
2018-10-18T15:26:33.429Z,99396.20
2018-10-18T15:29:01.600Z,99402.98
2018-10-18T15:31:29.899Z,99403.14
2018-10-18T15:33:58.326Z,99408.74
2018-10-18T15:36:26.651Z,99401.23
2018-10-18T15:38:55.161Z,99409.98
2018-10-18T15:41:23.297Z,99405.95
2018-10-18T15:43:52.602Z,99405.06
2018-10-18T15:46:21.102Z,99404.36
2018-10-18T15:48:49.408Z,99403.73
2018-10-18T15:51:17.824Z,99410.70
2018-10-18T15:53:46.043Z,99411.23
2018-10-18T15:56:14.404Z,99418.50
2018-10-18T15:58:42.690Z,99404.09
2018-10-18T16:01:10.997Z,99414.48
2018-10-18T16:03:39.295Z,99421.48
2018-10-18T16:06:07.711Z,99419.73
2018-10-18T16:08:36.298Z,99414.88
2018-10-18T16:11:04.820Z,99419.14
2018-10-18T16:13:33.479Z,99414.17
2018-10-18T16:16:01.724Z,99422.44
2018-10-18T16:18:30.036Z,99419.84
2018-10-18T16:20:58.509Z,99422.92
2018-10-18T16:23:26.820Z,99427.65
2018-10-18T16:25:55.346Z,99423.13
2018-10-18T16:28:23.613Z,99420.20
2018-10-18T16:30:51.993Z,99423.81
2018-10-18T16:33:20.331Z,99429.48
2018-10-18T16:35:49.232Z,99432.02
2018-10-18T16:38:17.929Z,99433.80
2018-10-18T16:40:46.165Z,99438.58
2018-10-18T16:43:14.610Z,99443.94
2018-10-18T16:45:42.891Z,99443.80
2018-10-18T16:48:11.600Z,99449.70
2018-10-18T16:50:40.103Z,99450.37
2018-10-18T16:53:08.620Z,99457.97
2018-10-18T16:55:37.063Z,99457.84
2018-10-18T16:58:05.509Z,99459.52
2018-10-18T17:00:33.834Z,99453.98
2018-10-18T17:03:02.305Z,99458.21
2018-10-18T17:05:30.588Z,99467.52
2018-10-18T17:07:59.169Z,99472.59
2018-10-18T17:10:27.788Z,99475.14
2018-10-18T17:12:56.220Z,99476.83
2018-10-18T17:15:24.578Z,99474.02
2018-10-18T17:17:53.059Z,99466.35
2018-10-18T17:20:21.597Z,99474.81
2018-10-18T17:22:50.180Z,99478.62
2018-10-18T17:25:18.627Z,99479.50
2018-10-18T17:27:47.116Z,99472.69
2018-10-18T17:30:15.628Z,99475.51
2018-10-18T17:32:44.000Z,99476.94
2018-10-18T17:35:12.342Z,99475.69
2018-10-18T17:37:40.623Z,99478.20
2018-10-18T17:40:09.813Z,99479.98
2018-10-18T17:42:38.473Z,99486.17
2018-10-18T17:45:08.345Z,99484.62
2018-10-18T17:47:36.772Z,99495.27
2018-10-18T17:50:05.651Z,99497.79
2018-10-18T17:52:34.884Z,99495.24
2018-10-18T17:55:03.498Z,99491.45
2018-10-18T17:57:31.895Z,99501.31
2018-10-18T18:00:00.370Z,99506.17
2018-10-18T18:02:28.637Z,99506.88
2018-10-18T18:04:56.995Z,99508.53
2018-10-18T18:07:25.454Z,99504.38
2018-10-18T18:09:53.863Z,99511.38
2018-10-18T18:12:22.191Z,99510.12
2018-10-18T18:14:50.555Z,99510.00
2018-10-18T18:17:19.052Z,99509.08
2018-10-18T18:19:47.401Z,99515.77
2018-10-18T18:22:15.759Z,99518.17
2018-10-18T18:24:44.059Z,99524.33
2018-10-18T18:27:12.371Z,99525.93
2018-10-18T18:29:40.740Z,99526.42
2018-10-18T18:32:09.441Z,99524.80
2018-10-18T18:34:39.621Z,99526.02
2018-10-18T18:37:13.067Z,99526.54
2018-10-18T18:39:45.735Z,99529.01
2018-10-18T18:42:15.539Z,99520.94
2018-10-18T18:44:46.336Z,99524.94
2018-10-18T18:47:17.863Z,99528.20
2018-10-18T18:49:46.150Z,99524.14
2018-10-18T18:52:14.595Z,99527.38
2018-10-18T18:54:45.031Z,99527.26
2018-10-18T18:57:13.463Z,99532.51
2018-10-18T18:59:41.732Z,99530.00
2018-10-18T19:02:10.046Z,99532.15
2018-10-18T19:04:39.418Z,99529.17
2018-10-18T19:07:07.735Z,99530.55
2018-10-18T19:09:36.112Z,99544.67
2018-10-18T19:12:04.656Z,99539.48
2018-10-18T19:14:33.092Z,99544.37
2018-10-18T19:17:01.602Z,99545.61
2018-10-18T19:19:29.881Z,99543.93
2018-10-18T19:21:58.319Z,99548.77
2018-10-18T19:24:26.640Z,99545.16
2018-10-18T19:26:55.167Z,99550.83
2018-10-18T19:29:23.816Z,99551.80
2018-10-18T19:31:52.320Z,99553.63
2018-10-18T19:34:20.744Z,99554.96
2018-10-18T19:36:50.493Z,99556.66
2018-10-18T19:39:18.822Z,99564.42
2018-10-18T19:41:47.337Z,99565.05
2018-10-18T19:44:15.692Z,99569.88
2018-10-18T19:46:44.079Z,99572.32
2018-10-18T19:49:12.564Z,99576.05
2018-10-18T19:51:40.859Z,99565.73
2018-10-18T19:54:09.152Z,99576.44
2018-10-18T19:56:37.525Z,99573.53
2018-10-18T19:59:06.303Z,99570.72
2018-10-18T20:01:34.690Z,99564.64
2018-10-18T20:04:03.031Z,99577.52
2018-10-18T20:06:32.203Z,99577.26
2018-10-18T20:09:00.525Z,99575.33
2018-10-18T20:11:28.855Z,99575.46
2018-10-18T20:13:57.287Z,99580.39
2018-10-18T20:16:25.640Z,99577.03
2018-10-18T20:18:53.992Z,99578.27
2018-10-18T20:21:22.415Z,99575.36
2018-10-18T20:23:50.719Z,99579.95
2018-10-18T20:26:19.316Z,99582.67
2018-10-18T20:28:47.406Z,99578.52
2018-10-18T20:31:15.683Z,99577.09
2018-10-18T20:33:44.286Z,99577.45
2018-10-18T20:36:21.915Z,99581.95
2018-10-18T20:38:50.211Z,99572.72
2018-10-18T20:41:18.733Z,99576.88
2018-10-18T20:43:47.147Z,99584.64
2018-10-18T20:46:15.916Z,99580.02
2018-10-18T20:48:44.258Z,99587.33
2018-10-18T20:51:12.675Z,99579.19
2018-10-18T20:53:40.977Z,99587.91
2018-10-18T20:56:09.317Z,99581.72
2018-10-18T20:58:37.764Z,99582.56
2018-10-18T21:01:06.914Z,99585.01
2018-10-18T21:03:35.853Z,99583.09
2018-10-18T21:06:04.636Z,99585.28
2018-10-18T21:08:32.859Z,99586.58
2018-10-18T21:11:01.162Z,99586.84
2018-10-18T21:13:29.508Z,99586.97
2018-10-18T21:15:57.829Z,99591.58
2018-10-18T21:18:26.137Z,99585.76
2018-10-18T21:20:54.493Z,99583.09
2018-10-18T21:23:22.913Z,99577.27
2018-10-18T21:25:51.322Z,99580.31
2018-10-18T21:28:19.698Z,99581.02
2018-10-18T21:30:48.072Z,99572.18
2018-10-18T21:33:16.389Z,99574.13
2018-10-18T21:35:44.837Z,99576.96
2018-10-18T21:38:13.171Z,99575.77
2018-10-18T21:40:41.451Z,99574.80
2018-10-18T21:43:09.752Z,99576.59
2018-10-18T21:45:38.039Z,99575.11
2018-10-18T21:48:06.455Z,99573.49
2018-10-18T21:50:34.756Z,99583.07
2018-10-18T21:53:03.122Z,99581.26
2018-10-18T21:55:31.424Z,99575.11
2018-10-18T21:57:59.845Z,99580.69
2018-10-18T22:00:29.256Z,99575.11
2018-10-18T22:02:57.570Z,99575.98
2018-10-18T22:05:25.916Z,99570.34
2018-10-18T22:07:54.322Z,99572.30
2018-10-18T22:10:22.620Z,99570.71
2018-10-18T22:12:50.961Z,99574.34
2018-10-18T22:15:19.274Z,99574.89
2018-10-18T22:17:47.589Z,99577.92
2018-10-18T22:20:15.970Z,99572.81
2018-10-18T22:22:44.251Z,99576.12
2018-10-18T22:25:12.522Z,99576.69
2018-10-18T22:27:40.850Z,99569.76
2018-10-18T22:30:09.340Z,99567.24
2018-10-18T22:32:37.724Z,99565.28
2018-10-18T22:35:06.402Z,99566.51
2018-10-18T22:37:34.691Z,99566.76
2018-10-18T22:40:03.049Z,99570.86
2018-10-18T22:42:31.418Z,99570.17
2018-10-18T22:44:59.710Z,99572.95
2018-10-18T22:47:28.012Z,99566.76
2018-10-18T22:49:56.384Z,99572.83
2018-10-18T22:52:24.719Z,99565.08
2018-10-18T22:54:53.016Z,99571.95
2018-10-18T22:57:21.351Z,99571.17
2018-10-18T22:59:49.648Z,99568.02
2018-10-18T23:02:17.932Z,99563.46
2018-10-18T23:04:46.360Z,99566.74
2018-10-18T23:07:14.704Z,99564.13
2018-10-18T23:09:43.176Z,99564.72
2018-10-18T23:12:11.508Z,99566.83
2018-10-18T23:14:39.791Z,99562.45
2018-10-18T23:17:08.146Z,99564.52
2018-10-18T23:19:36.403Z,99560.05
2018-10-18T23:22:06.737Z,99550.45
2018-10-18T23:24:36.827Z,99561.14
2018-10-18T23:27:05.510Z,99555.73
2018-10-18T23:29:33.771Z,99550.86
2018-10-18T23:32:02.090Z,99545.64
2018-10-18T23:34:30.509Z,99544.09
2018-10-18T23:36:59.126Z,99542.98
2018-10-18T23:39:27.442Z,99550.33
2018-10-18T23:41:55.765Z,99542.36
2018-10-18T23:44:24.071Z,99551.03
2018-10-18T23:46:52.450Z,99554.34
2018-10-18T23:49:20.682Z,99540.55
2018-10-18T23:51:49.051Z,99553.77
2018-10-18T23:54:17.302Z,99547.20
2018-10-18T23:56:45.596Z,99549.49
2018-10-18T23:59:13.939Z,99548.60
